<?xml version="1.0" encoding="UTF-8" standalone="no" ?>
<gpx xmlns="http://www.topografix.com/GPX/1/1" xmlns:xsi="http://www.w3.org/2001/XMLSchema-instance" xsi:schemaLocation="http://www.topografix.com/GPX/1/1 http://www.topografix.com/GPX/1/1/gpx.xsd" version="1.1" creator="VisuGPX - https://www.visugpx.com">
  <metadata>
    <name>GR20 etape 10</name>
  </metadata>
  <trk>
    <name><![CDATA[GR20 Traversée de la Corse (2020)]]></name>
    <trkseg>
      <trkpt lat="42.12628" lon="9.13386">
        <ele>968.666</ele>
        <time>2020-03-19T16:22:00Z</time>
      </trkpt>
      <trkpt lat="42.12628" lon="9.13386">
        <ele>968.629</ele>
        <time>2020-03-19T16:22:00Z</time>
      </trkpt>
      <trkpt lat="42.12635" lon="9.13459">
        <ele>971.321</ele>
        <time>2020-03-19T16:22:20Z</time>
      </trkpt>
      <trkpt lat="42.12563" lon="9.13445">
        <ele>980.608</ele>
        <time>2020-03-19T16:22:40Z</time>
      </trkpt>
      <trkpt lat="42.12522" lon="9.13462">
        <ele>984.41</ele>
        <time>2020-03-19T16:23:00Z</time>
      </trkpt>
      <trkpt lat="42.12459" lon="9.1346">
        <ele>997.233</ele>
        <time>2020-03-19T16:23:20Z</time>
      </trkpt>
      <trkpt lat="42.12405" lon="9.13498">
        <ele>1013.095</ele>
        <time>2020-03-19T16:23:40Z</time>
      </trkpt>
      <trkpt lat="42.12423" lon="9.13522">
        <ele>1007.283</ele>
        <time>2020-03-19T16:24:00Z</time>
      </trkpt>
      <trkpt lat="42.12472" lon="9.13546">
        <ele>1005.377</ele>
        <time>2020-03-19T16:24:20Z</time>
      </trkpt>
      <trkpt lat="42.12545" lon="9.13591">
        <ele>1012.311</ele>
        <time>2020-03-19T16:24:40Z</time>
      </trkpt>
      <trkpt lat="42.12576" lon="9.13632">
        <ele>1015.674</ele>
        <time>2020-03-19T16:25:00Z</time>
      </trkpt>
      <trkpt lat="42.12572" lon="9.13675">
        <ele>1026.68</ele>
        <time>2020-03-19T16:25:20Z</time>
      </trkpt>
      <trkpt lat="42.12577" lon="9.13701">
        <ele>1030.993</ele>
        <time>2020-03-19T16:25:40Z</time>
      </trkpt>
      <trkpt lat="42.12705" lon="9.13797">
        <ele>1023.265</ele>
        <time>2020-03-19T16:26:00Z</time>
      </trkpt>
      <trkpt lat="42.12721" lon="9.13842">
        <ele>1037.821</ele>
        <time>2020-03-19T16:26:20Z</time>
      </trkpt>
      <trkpt lat="42.12763" lon="9.13881">
        <ele>1022.308</ele>
        <time>2020-03-19T16:26:40Z</time>
      </trkpt>
      <trkpt lat="42.12793" lon="9.13941">
        <ele>1032.383</ele>
        <time>2020-03-19T16:27:00Z</time>
      </trkpt>
      <trkpt lat="42.12803" lon="9.13991">
        <ele>1034.856</ele>
        <time>2020-03-19T16:27:20Z</time>
      </trkpt>
      <trkpt lat="42.12836" lon="9.14034">
        <ele>1020.858</ele>
        <time>2020-03-19T16:27:40Z</time>
      </trkpt>
      <trkpt lat="42.1285" lon="9.14111">
        <ele>1041.176</ele>
        <time>2020-03-19T16:28:00Z</time>
      </trkpt>
      <trkpt lat="42.12883" lon="9.1415">
        <ele>1038.11</ele>
        <time>2020-03-19T16:28:20Z</time>
      </trkpt>
      <trkpt lat="42.12897" lon="9.14202">
        <ele>1056.124</ele>
        <time>2020-03-19T16:28:40Z</time>
      </trkpt>
      <trkpt lat="42.12914" lon="9.14211">
        <ele>1056.487</ele>
        <time>2020-03-19T16:29:00Z</time>
      </trkpt>
      <trkpt lat="42.12954" lon="9.14191">
        <ele>1043.953</ele>
        <time>2020-03-19T16:29:20Z</time>
      </trkpt>
      <trkpt lat="42.13023" lon="9.14187">
        <ele>1044.239</ele>
        <time>2020-03-19T16:29:40Z</time>
      </trkpt>
      <trkpt lat="42.13087" lon="9.14159">
        <ele>1029.501</ele>
        <time>2020-03-19T16:30:00Z</time>
      </trkpt>
      <trkpt lat="42.13097" lon="9.14174">
        <ele>1038.821</ele>
        <time>2020-03-19T16:30:20Z</time>
      </trkpt>
      <trkpt lat="42.13059" lon="9.14191">
        <ele>1045.308</ele>
        <time>2020-03-19T16:30:40Z</time>
      </trkpt>
      <trkpt lat="42.13019" lon="9.14232">
        <ele>1054.847</ele>
        <time>2020-03-19T16:31:00Z</time>
      </trkpt>
      <trkpt lat="42.12976" lon="9.14236">
        <ele>1053.79</ele>
        <time>2020-03-19T16:31:20Z</time>
      </trkpt>
      <trkpt lat="42.12955" lon="9.14271">
        <ele>1072.692</ele>
        <time>2020-03-19T16:31:40Z</time>
      </trkpt>
      <trkpt lat="42.12986" lon="9.14267">
        <ele>1071.78</ele>
        <time>2020-03-19T16:32:00Z</time>
      </trkpt>
      <trkpt lat="42.13005" lon="9.14277">
        <ele>1075.044</ele>
        <time>2020-03-19T16:32:20Z</time>
      </trkpt>
      <trkpt lat="42.13079" lon="9.14254">
        <ele>1067.438</ele>
        <time>2020-03-19T16:32:40Z</time>
      </trkpt>
      <trkpt lat="42.13098" lon="9.1426">
        <ele>1070.971</ele>
        <time>2020-03-19T16:33:00Z</time>
      </trkpt>
      <trkpt lat="42.13048" lon="9.14323">
        <ele>1083.777</ele>
        <time>2020-03-19T16:33:20Z</time>
      </trkpt>
      <trkpt lat="42.13019" lon="9.14378">
        <ele>1104.582</ele>
        <time>2020-03-19T16:33:40Z</time>
      </trkpt>
      <trkpt lat="42.12964" lon="9.14396">
        <ele>1103.643</ele>
        <time>2020-03-19T16:34:00Z</time>
      </trkpt>
      <trkpt lat="42.12914" lon="9.14419">
        <ele>1117.417</ele>
        <time>2020-03-19T16:34:20Z</time>
      </trkpt>
      <trkpt lat="42.12883" lon="9.1445">
        <ele>1137.108</ele>
        <time>2020-03-19T16:34:40Z</time>
      </trkpt>
      <trkpt lat="42.12936" lon="9.14439">
        <ele>1123.952</ele>
        <time>2020-03-19T16:35:00Z</time>
      </trkpt>
      <trkpt lat="42.12997" lon="9.14439">
        <ele>1122.425</ele>
        <time>2020-03-19T16:35:20Z</time>
      </trkpt>
      <trkpt lat="42.13041" lon="9.14445">
        <ele>1128.697</ele>
        <time>2020-03-19T16:35:40Z</time>
      </trkpt>
      <trkpt lat="42.1312" lon="9.14437">
        <ele>1130.245</ele>
        <time>2020-03-19T16:36:00Z</time>
      </trkpt>
      <trkpt lat="42.13149" lon="9.14445">
        <ele>1130.259</ele>
        <time>2020-03-19T16:36:20Z</time>
      </trkpt>
      <trkpt lat="42.13149" lon="9.14456">
        <ele>1131.943</ele>
        <time>2020-03-19T16:36:40Z</time>
      </trkpt>
      <trkpt lat="42.13113" lon="9.14514">
        <ele>1149.846</ele>
        <time>2020-03-19T16:37:00Z</time>
      </trkpt>
      <trkpt lat="42.1314" lon="9.14516">
        <ele>1147.812</ele>
        <time>2020-03-19T16:37:20Z</time>
      </trkpt>
      <trkpt lat="42.13145" lon="9.14543">
        <ele>1149.843</ele>
        <time>2020-03-19T16:37:40Z</time>
      </trkpt>
      <trkpt lat="42.13123" lon="9.14551">
        <ele>1152.564</ele>
        <time>2020-03-19T16:38:00Z</time>
      </trkpt>
      <trkpt lat="42.131" lon="9.14575">
        <ele>1160.81</ele>
        <time>2020-03-19T16:38:20Z</time>
      </trkpt>
      <trkpt lat="42.13101" lon="9.14592">
        <ele>1165.608</ele>
        <time>2020-03-19T16:38:40Z</time>
      </trkpt>
      <trkpt lat="42.13073" lon="9.14648">
        <ele>1180.088</ele>
        <time>2020-03-19T16:39:00Z</time>
      </trkpt>
      <trkpt lat="42.13056" lon="9.14653">
        <ele>1181.081</ele>
        <time>2020-03-19T16:39:20Z</time>
      </trkpt>
      <trkpt lat="42.13061" lon="9.14668">
        <ele>1188.443</ele>
        <time>2020-03-19T16:39:40Z</time>
      </trkpt>
      <trkpt lat="42.13042" lon="9.14676">
        <ele>1192.541</ele>
        <time>2020-03-19T16:40:00Z</time>
      </trkpt>
      <trkpt lat="42.13019" lon="9.14681">
        <ele>1195.585</ele>
        <time>2020-03-19T16:40:20Z</time>
      </trkpt>
      <trkpt lat="42.13015" lon="9.147">
        <ele>1196.779</ele>
        <time>2020-03-19T16:40:40Z</time>
      </trkpt>
      <trkpt lat="42.12916" lon="9.14779">
        <ele>1223.422</ele>
        <time>2020-03-19T16:41:00Z</time>
      </trkpt>
      <trkpt lat="42.12827" lon="9.14804">
        <ele>1243.098</ele>
        <time>2020-03-19T16:41:20Z</time>
      </trkpt>
      <trkpt lat="42.1281" lon="9.14792">
        <ele>1243.831</ele>
        <time>2020-03-19T16:41:40Z</time>
      </trkpt>
      <trkpt lat="42.12795" lon="9.14805">
        <ele>1245.961</ele>
        <time>2020-03-19T16:42:00Z</time>
      </trkpt>
      <trkpt lat="42.12784" lon="9.14826">
        <ele>1247.907</ele>
        <time>2020-03-19T16:42:20Z</time>
      </trkpt>
      <trkpt lat="42.12754" lon="9.14832">
        <ele>1254.308</ele>
        <time>2020-03-19T16:42:40Z</time>
      </trkpt>
      <trkpt lat="42.12696" lon="9.14774">
        <ele>1265.317</ele>
        <time>2020-03-19T16:43:00Z</time>
      </trkpt>
      <trkpt lat="42.12619" lon="9.14712">
        <ele>1287.94</ele>
        <time>2020-03-19T16:43:20Z</time>
      </trkpt>
      <trkpt lat="42.12554" lon="9.14675">
        <ele>1315.812</ele>
        <time>2020-03-19T16:43:40Z</time>
      </trkpt>
      <trkpt lat="42.12538" lon="9.14675">
        <ele>1321.39</ele>
        <time>2020-03-19T16:44:00Z</time>
      </trkpt>
      <trkpt lat="42.12502" lon="9.14759">
        <ele>1336.834</ele>
        <time>2020-03-19T16:44:20Z</time>
      </trkpt>
      <trkpt lat="42.12479" lon="9.14794">
        <ele>1355.698</ele>
        <time>2020-03-19T16:44:40Z</time>
      </trkpt>
      <trkpt lat="42.12448" lon="9.14876">
        <ele>1347.151</ele>
        <time>2020-03-19T16:45:00Z</time>
      </trkpt>
      <trkpt lat="42.12411" lon="9.1491">
        <ele>1355.637</ele>
        <time>2020-03-19T16:45:20Z</time>
      </trkpt>
      <trkpt lat="42.12289" lon="9.1491">
        <ele>1381.337</ele>
        <time>2020-03-19T16:45:40Z</time>
      </trkpt>
      <trkpt lat="42.12249" lon="9.14921">
        <ele>1369.249</ele>
        <time>2020-03-19T16:46:00Z</time>
      </trkpt>
      <trkpt lat="42.12196" lon="9.14921">
        <ele>1364.713</ele>
        <time>2020-03-19T16:46:20Z</time>
      </trkpt>
      <trkpt lat="42.12141" lon="9.14955">
        <ele>1369.908</ele>
        <time>2020-03-19T16:46:40Z</time>
      </trkpt>
      <trkpt lat="42.12102" lon="9.14951">
        <ele>1375.747</ele>
        <time>2020-03-19T16:47:00Z</time>
      </trkpt>
      <trkpt lat="42.12076" lon="9.1497">
        <ele>1385.68</ele>
        <time>2020-03-19T16:47:20Z</time>
      </trkpt>
      <trkpt lat="42.12027" lon="9.1503">
        <ele>1366.392</ele>
        <time>2020-03-19T16:47:40Z</time>
      </trkpt>
      <trkpt lat="42.11986" lon="9.15052">
        <ele>1375.04</ele>
        <time>2020-03-19T16:48:00Z</time>
      </trkpt>
      <trkpt lat="42.11952" lon="9.1505">
        <ele>1379.254</ele>
        <time>2020-03-19T16:48:20Z</time>
      </trkpt>
      <trkpt lat="42.11959" lon="9.15026">
        <ele>1381.998</ele>
        <time>2020-03-19T16:48:40Z</time>
      </trkpt>
      <trkpt lat="42.11979" lon="9.15015">
        <ele>1382.571</ele>
        <time>2020-03-19T16:49:00Z</time>
      </trkpt>
      <trkpt lat="42.11943" lon="9.15005">
        <ele>1386.577</ele>
        <time>2020-03-19T16:49:20Z</time>
      </trkpt>
      <trkpt lat="42.11894" lon="9.15011">
        <ele>1400.738</ele>
        <time>2020-03-19T16:49:40Z</time>
      </trkpt>
      <trkpt lat="42.1185" lon="9.15">
        <ele>1417.87</ele>
        <time>2020-03-19T16:50:00Z</time>
      </trkpt>
      <trkpt lat="42.11886" lon="9.14972">
        <ele>1417.017</ele>
        <time>2020-03-19T16:50:20Z</time>
      </trkpt>
      <trkpt lat="42.11937" lon="9.14962">
        <ele>1408.008</ele>
        <time>2020-03-19T16:50:40Z</time>
      </trkpt>
      <trkpt lat="42.11945" lon="9.14945">
        <ele>1411.177</ele>
        <time>2020-03-19T16:51:00Z</time>
      </trkpt>
      <trkpt lat="42.11936" lon="9.14925">
        <ele>1417.05</ele>
        <time>2020-03-19T16:51:20Z</time>
      </trkpt>
      <trkpt lat="42.11891" lon="9.14923">
        <ele>1424.362</ele>
        <time>2020-03-19T16:51:40Z</time>
      </trkpt>
      <trkpt lat="42.11814" lon="9.14876">
        <ele>1459.38</ele>
        <time>2020-03-19T16:52:00Z</time>
      </trkpt>
      <trkpt lat="42.11786" lon="9.14882">
        <ele>1463.174</ele>
        <time>2020-03-19T16:52:20Z</time>
      </trkpt>
      <trkpt lat="42.11675" lon="9.15067">
        <ele>1475.058</ele>
        <time>2020-03-19T16:52:40Z</time>
      </trkpt>
      <trkpt lat="42.11672" lon="9.15024">
        <ele>1479.121</ele>
        <time>2020-03-19T16:53:00Z</time>
      </trkpt>
      <trkpt lat="42.11721" lon="9.14919">
        <ele>1481.387</ele>
        <time>2020-03-19T16:53:20Z</time>
      </trkpt>
      <trkpt lat="42.11732" lon="9.14871">
        <ele>1491.142</ele>
        <time>2020-03-19T16:53:40Z</time>
      </trkpt>
      <trkpt lat="42.11724" lon="9.1486">
        <ele>1493.022</ele>
        <time>2020-03-19T16:54:00Z</time>
      </trkpt>
      <trkpt lat="42.11652" lon="9.14974">
        <ele>1512.114</ele>
        <time>2020-03-19T16:54:20Z</time>
      </trkpt>
      <trkpt lat="42.11507" lon="9.15138">
        <ele>1531.708</ele>
        <time>2020-03-19T16:54:40Z</time>
      </trkpt>
      <trkpt lat="42.11476" lon="9.15186">
        <ele>1546.928</ele>
        <time>2020-03-19T16:55:00Z</time>
      </trkpt>
      <trkpt lat="42.11484" lon="9.15153">
        <ele>1549.521</ele>
        <time>2020-03-19T16:55:20Z</time>
      </trkpt>
      <trkpt lat="42.11526" lon="9.15048">
        <ele>1542.363</ele>
        <time>2020-03-19T16:55:40Z</time>
      </trkpt>
      <trkpt lat="42.11535" lon="9.15013">
        <ele>1543.381</ele>
        <time>2020-03-19T16:56:00Z</time>
      </trkpt>
      <trkpt lat="42.11595" lon="9.14923">
        <ele>1536.165</ele>
        <time>2020-03-19T16:56:20Z</time>
      </trkpt>
      <trkpt lat="42.11628" lon="9.14843">
        <ele>1533.159</ele>
        <time>2020-03-19T16:56:40Z</time>
      </trkpt>
      <trkpt lat="42.11624" lon="9.14807">
        <ele>1532.882</ele>
        <time>2020-03-19T16:57:00Z</time>
      </trkpt>
      <trkpt lat="42.11595" lon="9.14811">
        <ele>1539.718</ele>
        <time>2020-03-19T16:57:20Z</time>
      </trkpt>
      <trkpt lat="42.11534" lon="9.14886">
        <ele>1564.451</ele>
        <time>2020-03-19T16:57:40Z</time>
      </trkpt>
      <trkpt lat="42.11491" lon="9.14912">
        <ele>1578.501</ele>
        <time>2020-03-19T16:58:00Z</time>
      </trkpt>
      <trkpt lat="42.11455" lon="9.14962">
        <ele>1582.911</ele>
        <time>2020-03-19T16:58:20Z</time>
      </trkpt>
      <trkpt lat="42.11394" lon="9.15024">
        <ele>1602.408</ele>
        <time>2020-03-19T16:58:40Z</time>
      </trkpt>
      <trkpt lat="42.11344" lon="9.15093">
        <ele>1605.379</ele>
        <time>2020-03-19T16:59:00Z</time>
      </trkpt>
      <trkpt lat="42.1135" lon="9.15162">
        <ele>1599.512</ele>
        <time>2020-03-19T16:59:20Z</time>
      </trkpt>
      <trkpt lat="42.11336" lon="9.15201">
        <ele>1590.424</ele>
        <time>2020-03-19T16:59:40Z</time>
      </trkpt>
      <trkpt lat="42.11313" lon="9.15246">
        <ele>1609.172</ele>
        <time>2020-03-19T17:00:00Z</time>
      </trkpt>
      <trkpt lat="42.11311" lon="9.15297">
        <ele>1610.136</ele>
        <time>2020-03-19T17:00:20Z</time>
      </trkpt>
      <trkpt lat="42.11351" lon="9.15366">
        <ele>1596.46</ele>
        <time>2020-03-19T17:00:40Z</time>
      </trkpt>
      <trkpt lat="42.1144" lon="9.15463">
        <ele>1593.053</ele>
        <time>2020-03-19T17:01:00Z</time>
      </trkpt>
      <trkpt lat="42.11465" lon="9.15562">
        <ele>1610.639</ele>
        <time>2020-03-19T17:01:20Z</time>
      </trkpt>
      <trkpt lat="42.11458" lon="9.15625">
        <ele>1623.989</ele>
        <time>2020-03-19T17:01:40Z</time>
      </trkpt>
      <trkpt lat="42.11435" lon="9.15683">
        <ele>1634.706</ele>
        <time>2020-03-19T17:02:00Z</time>
      </trkpt>
      <trkpt lat="42.11413" lon="9.15702">
        <ele>1640.926</ele>
        <time>2020-03-19T17:02:20Z</time>
      </trkpt>
      <trkpt lat="42.11405" lon="9.15766">
        <ele>1634.308</ele>
        <time>2020-03-19T17:02:40Z</time>
      </trkpt>
      <trkpt lat="42.1121" lon="9.15815">
        <ele>1602.822</ele>
        <time>2020-03-19T17:03:00Z</time>
      </trkpt>
      <trkpt lat="42.11172" lon="9.15785">
        <ele>1603.915</ele>
        <time>2020-03-19T17:03:20Z</time>
      </trkpt>
      <trkpt lat="42.1116" lon="9.15788">
        <ele>1587.367</ele>
        <time>2020-03-19T17:03:40Z</time>
      </trkpt>
      <trkpt lat="42.11151" lon="9.15774">
        <ele>1589.475</ele>
        <time>2020-03-19T17:04:00Z</time>
      </trkpt>
      <trkpt lat="42.11131" lon="9.15769">
        <ele>1585.519</ele>
        <time>2020-03-19T17:04:20Z</time>
      </trkpt>
      <trkpt lat="42.11102" lon="9.15747">
        <ele>1592.333</ele>
        <time>2020-03-19T17:04:40Z</time>
      </trkpt>
      <trkpt lat="42.1106" lon="9.15707">
        <ele>1582.616</ele>
        <time>2020-03-19T17:05:00Z</time>
      </trkpt>
      <trkpt lat="42.11033" lon="9.15694">
        <ele>1581.632</ele>
        <time>2020-03-19T17:05:20Z</time>
      </trkpt>
      <trkpt lat="42.11015" lon="9.15694">
        <ele>1580.289</ele>
        <time>2020-03-19T17:05:40Z</time>
      </trkpt>
      <trkpt lat="42.10993" lon="9.15678">
        <ele>1578.006</ele>
        <time>2020-03-19T17:06:00Z</time>
      </trkpt>
      <trkpt lat="42.10968" lon="9.15681">
        <ele>1574.626</ele>
        <time>2020-03-19T17:06:20Z</time>
      </trkpt>
      <trkpt lat="42.1094" lon="9.15701">
        <ele>1572.008</ele>
        <time>2020-03-19T17:06:40Z</time>
      </trkpt>
      <trkpt lat="42.10912" lon="9.15747">
        <ele>1561.442</ele>
        <time>2020-03-19T17:07:00Z</time>
      </trkpt>
      <trkpt lat="42.10899" lon="9.15793">
        <ele>1556.345</ele>
        <time>2020-03-19T17:07:20Z</time>
      </trkpt>
      <trkpt lat="42.10886" lon="9.15806">
        <ele>1556.667</ele>
        <time>2020-03-19T17:07:40Z</time>
      </trkpt>
      <trkpt lat="42.10861" lon="9.15802">
        <ele>1561.045</ele>
        <time>2020-03-19T17:08:00Z</time>
      </trkpt>
      <trkpt lat="42.1086" lon="9.15825">
        <ele>1560.659</ele>
        <time>2020-03-19T17:08:20Z</time>
      </trkpt>
      <trkpt lat="42.10869" lon="9.1587">
        <ele>1551.173</ele>
        <time>2020-03-19T17:08:40Z</time>
      </trkpt>
      <trkpt lat="42.10849" lon="9.15887">
        <ele>1554.226</ele>
        <time>2020-03-19T17:09:00Z</time>
      </trkpt>
      <trkpt lat="42.10856" lon="9.15929">
        <ele>1551.312</ele>
        <time>2020-03-19T17:09:20Z</time>
      </trkpt>
      <trkpt lat="42.10837" lon="9.16006">
        <ele>1556.912</ele>
        <time>2020-03-19T17:09:40Z</time>
      </trkpt>
      <trkpt lat="42.10836" lon="9.1608">
        <ele>1556.832</ele>
        <time>2020-03-19T17:10:00Z</time>
      </trkpt>
      <trkpt lat="42.10841" lon="9.16128">
        <ele>1546.305</ele>
        <time>2020-03-19T17:10:20Z</time>
      </trkpt>
      <trkpt lat="42.10844" lon="9.16209">
        <ele>1550.008</ele>
        <time>2020-03-19T17:10:40Z</time>
      </trkpt>
      <trkpt lat="42.10839" lon="9.16241">
        <ele>1562.335</ele>
        <time>2020-03-19T17:11:00Z</time>
      </trkpt>
      <trkpt lat="42.10873" lon="9.16319">
        <ele>1551.598</ele>
        <time>2020-03-19T17:11:20Z</time>
      </trkpt>
      <trkpt lat="42.10875" lon="9.16383">
        <ele>1557.53</ele>
        <time>2020-03-19T17:11:40Z</time>
      </trkpt>
      <trkpt lat="42.10885" lon="9.16426">
        <ele>1557.068</ele>
        <time>2020-03-19T17:12:00Z</time>
      </trkpt>
      <trkpt lat="42.10896" lon="9.16464">
        <ele>1555.982</ele>
        <time>2020-03-19T17:12:20Z</time>
      </trkpt>
      <trkpt lat="42.10898" lon="9.16515">
        <ele>1556.496</ele>
        <time>2020-03-19T17:12:40Z</time>
      </trkpt>
      <trkpt lat="42.1091" lon="9.16591">
        <ele>1555.469</ele>
        <time>2020-03-19T17:13:00Z</time>
      </trkpt>
      <trkpt lat="42.10933" lon="9.16686">
        <ele>1542.195</ele>
        <time>2020-03-19T17:13:20Z</time>
      </trkpt>
      <trkpt lat="42.10928" lon="9.16776">
        <ele>1536.273</ele>
        <time>2020-03-19T17:13:40Z</time>
      </trkpt>
      <trkpt lat="42.10915" lon="9.16823">
        <ele>1537.685</ele>
        <time>2020-03-19T17:14:00Z</time>
      </trkpt>
      <trkpt lat="42.10825" lon="9.16744">
        <ele>1555.613</ele>
        <time>2020-03-19T17:14:20Z</time>
      </trkpt>
      <trkpt lat="42.10786" lon="9.16721">
        <ele>1558.308</ele>
        <time>2020-03-19T17:14:40Z</time>
      </trkpt>
      <trkpt lat="42.10765" lon="9.16718">
        <ele>1556.411</ele>
        <time>2020-03-19T17:15:00Z</time>
      </trkpt>
      <trkpt lat="42.10675" lon="9.16763">
        <ele>1527.274</ele>
        <time>2020-03-19T17:15:20Z</time>
      </trkpt>
      <trkpt lat="42.10644" lon="9.16748">
        <ele>1551.626</ele>
        <time>2020-03-19T17:15:40Z</time>
      </trkpt>
      <trkpt lat="42.10626" lon="9.16757">
        <ele>1535.924</ele>
        <time>2020-03-19T17:16:00Z</time>
      </trkpt>
      <trkpt lat="42.1061" lon="9.16812">
        <ele>1529.278</ele>
        <time>2020-03-19T17:16:20Z</time>
      </trkpt>
      <trkpt lat="42.10591" lon="9.16835">
        <ele>1522.232</ele>
        <time>2020-03-19T17:16:40Z</time>
      </trkpt>
      <trkpt lat="42.10579" lon="9.16898">
        <ele>1525.355</ele>
        <time>2020-03-19T17:17:00Z</time>
      </trkpt>
      <trkpt lat="42.10559" lon="9.1692">
        <ele>1519.331</ele>
        <time>2020-03-19T17:17:20Z</time>
      </trkpt>
      <trkpt lat="42.10547" lon="9.16949">
        <ele>1521.613</ele>
        <time>2020-03-19T17:17:40Z</time>
      </trkpt>
      <trkpt lat="42.10529" lon="9.16967">
        <ele>1524.443</ele>
        <time>2020-03-19T17:18:00Z</time>
      </trkpt>
      <trkpt lat="42.10512" lon="9.17015">
        <ele>1515.907</ele>
        <time>2020-03-19T17:18:20Z</time>
      </trkpt>
      <trkpt lat="42.10486" lon="9.17046">
        <ele>1529.508</ele>
        <time>2020-03-19T17:18:40Z</time>
      </trkpt>
      <trkpt lat="42.10466" lon="9.17058">
        <ele>1530.455</ele>
        <time>2020-03-19T17:19:00Z</time>
      </trkpt>
      <trkpt lat="42.10434" lon="9.17107">
        <ele>1512.868</ele>
        <time>2020-03-19T17:19:20Z</time>
      </trkpt>
      <trkpt lat="42.1039" lon="9.17136">
        <ele>1519.87</ele>
        <time>2020-03-19T17:19:40Z</time>
      </trkpt>
      <trkpt lat="42.10326" lon="9.17194">
        <ele>1512.438</ele>
        <time>2020-03-19T17:20:00Z</time>
      </trkpt>
      <trkpt lat="42.10288" lon="9.17243">
        <ele>1507.362</ele>
        <time>2020-03-19T17:20:20Z</time>
      </trkpt>
      <trkpt lat="42.10267" lon="9.17255">
        <ele>1501.686</ele>
        <time>2020-03-19T17:20:40Z</time>
      </trkpt>
      <trkpt lat="42.10255" lon="9.17236">
        <ele>1507.599</ele>
        <time>2020-03-19T17:21:00Z</time>
      </trkpt>
      <trkpt lat="42.1025" lon="9.17133">
        <ele>1520.395</ele>
        <time>2020-03-19T17:21:20Z</time>
      </trkpt>
      <trkpt lat="42.10257" lon="9.17097">
        <ele>1520.797</ele>
        <time>2020-03-19T17:21:40Z</time>
      </trkpt>
      <trkpt lat="42.10297" lon="9.16974">
        <ele>1522.423</ele>
        <time>2020-03-19T17:22:00Z</time>
      </trkpt>
      <trkpt lat="42.10334" lon="9.16902">
        <ele>1538.725</ele>
        <time>2020-03-19T17:22:20Z</time>
      </trkpt>
      <trkpt lat="42.1035" lon="9.16846">
        <ele>1532.908</ele>
        <time>2020-03-19T17:22:40Z</time>
      </trkpt>
      <trkpt lat="42.10413" lon="9.16722">
        <ele>1540.913</ele>
        <time>2020-03-19T17:23:00Z</time>
      </trkpt>
      <trkpt lat="42.10418" lon="9.16682">
        <ele>1560.496</ele>
        <time>2020-03-19T17:23:20Z</time>
      </trkpt>
      <trkpt lat="42.10426" lon="9.16657">
        <ele>1562.428</ele>
        <time>2020-03-19T17:23:40Z</time>
      </trkpt>
      <trkpt lat="42.10417" lon="9.16615">
        <ele>1571.116</ele>
        <time>2020-03-19T17:24:00Z</time>
      </trkpt>
      <trkpt lat="42.10332" lon="9.1656">
        <ele>1543.57</ele>
        <time>2020-03-19T17:24:20Z</time>
      </trkpt>
      <trkpt lat="42.10286" lon="9.16554">
        <ele>1540.014</ele>
        <time>2020-03-19T17:24:40Z</time>
      </trkpt>
      <trkpt lat="42.10284" lon="9.16522">
        <ele>1545.577</ele>
        <time>2020-03-19T17:25:00Z</time>
      </trkpt>
      <trkpt lat="42.10267" lon="9.16468">
        <ele>1565.063</ele>
        <time>2020-03-19T17:25:20Z</time>
      </trkpt>
      <trkpt lat="42.10237" lon="9.16443">
        <ele>1537.272</ele>
        <time>2020-03-19T17:25:40Z</time>
      </trkpt>
      <trkpt lat="42.10241" lon="9.16313">
        <ele>1555.313</ele>
        <time>2020-03-19T17:26:00Z</time>
      </trkpt>
      <trkpt lat="42.10214" lon="9.16272">
        <ele>1548.314</ele>
        <time>2020-03-19T17:26:20Z</time>
      </trkpt>
      <trkpt lat="42.10213" lon="9.16221">
        <ele>1561.608</ele>
        <time>2020-03-19T17:26:40Z</time>
      </trkpt>
      <trkpt lat="42.10182" lon="9.16209">
        <ele>1556.171</ele>
        <time>2020-03-19T17:27:00Z</time>
      </trkpt>
      <trkpt lat="42.10166" lon="9.16188">
        <ele>1540.154</ele>
        <time>2020-03-19T17:27:20Z</time>
      </trkpt>
      <trkpt lat="42.1014" lon="9.16179">
        <ele>1536.366</ele>
        <time>2020-03-19T17:27:40Z</time>
      </trkpt>
      <trkpt lat="42.10108" lon="9.16193">
        <ele>1527.874</ele>
        <time>2020-03-19T17:28:00Z</time>
      </trkpt>
      <trkpt lat="42.10089" lon="9.1614">
        <ele>1542.198</ele>
        <time>2020-03-19T17:28:20Z</time>
      </trkpt>
      <trkpt lat="42.10097" lon="9.16117">
        <ele>1547.092</ele>
        <time>2020-03-19T17:28:40Z</time>
      </trkpt>
      <trkpt lat="42.10079" lon="9.16051">
        <ele>1528.755</ele>
        <time>2020-03-19T17:29:00Z</time>
      </trkpt>
      <trkpt lat="42.10074" lon="9.15974">
        <ele>1539.651</ele>
        <time>2020-03-19T17:29:20Z</time>
      </trkpt>
      <trkpt lat="42.10078" lon="9.15938">
        <ele>1545.095</ele>
        <time>2020-03-19T17:29:40Z</time>
      </trkpt>
      <trkpt lat="42.10049" lon="9.15914">
        <ele>1550.849</ele>
        <time>2020-03-19T17:30:00Z</time>
      </trkpt>
      <trkpt lat="42.1004" lon="9.15848">
        <ele>1556.823</ele>
        <time>2020-03-19T17:30:20Z</time>
      </trkpt>
      <trkpt lat="42.10027" lon="9.15834">
        <ele>1554.708</ele>
        <time>2020-03-19T17:30:40Z</time>
      </trkpt>
      <trkpt lat="42.09994" lon="9.15818">
        <ele>1551.343</ele>
        <time>2020-03-19T17:31:00Z</time>
      </trkpt>
      <trkpt lat="42.09978" lon="9.15813">
        <ele>1550.886</ele>
        <time>2020-03-19T17:31:20Z</time>
      </trkpt>
      <trkpt lat="42.09956" lon="9.15785">
        <ele>1552.618</ele>
        <time>2020-03-19T17:31:40Z</time>
      </trkpt>
      <trkpt lat="42.0992" lon="9.15732">
        <ele>1569.496</ele>
        <time>2020-03-19T17:32:00Z</time>
      </trkpt>
      <trkpt lat="42.09874" lon="9.15697">
        <ele>1550.96</ele>
        <time>2020-03-19T17:32:20Z</time>
      </trkpt>
      <trkpt lat="42.09843" lon="9.15652">
        <ele>1556.254</ele>
        <time>2020-03-19T17:32:40Z</time>
      </trkpt>
      <trkpt lat="42.09832" lon="9.15609">
        <ele>1545.457</ele>
        <time>2020-03-19T17:33:00Z</time>
      </trkpt>
      <trkpt lat="42.09828" lon="9.15572">
        <ele>1562.033</ele>
        <time>2020-03-19T17:33:20Z</time>
      </trkpt>
      <trkpt lat="42.09799" lon="9.1557">
        <ele>1558.782</ele>
        <time>2020-03-19T17:33:40Z</time>
      </trkpt>
      <trkpt lat="42.0975" lon="9.15542">
        <ele>1541.243</ele>
        <time>2020-03-19T17:34:00Z</time>
      </trkpt>
      <trkpt lat="42.09736" lon="9.15512">
        <ele>1549.617</ele>
        <time>2020-03-19T17:34:20Z</time>
      </trkpt>
      <trkpt lat="42.09719" lon="9.15525">
        <ele>1542.408</ele>
        <time>2020-03-19T17:34:40Z</time>
      </trkpt>
      <trkpt lat="42.09662" lon="9.15513">
        <ele>1534.232</ele>
        <time>2020-03-19T17:35:00Z</time>
      </trkpt>
      <trkpt lat="42.09652" lon="9.15451">
        <ele>1553.465</ele>
        <time>2020-03-19T17:35:20Z</time>
      </trkpt>
      <trkpt lat="42.09635" lon="9.15434">
        <ele>1554.537</ele>
        <time>2020-03-19T17:35:40Z</time>
      </trkpt>
      <trkpt lat="42.09598" lon="9.15419">
        <ele>1554.675</ele>
        <time>2020-03-19T17:36:00Z</time>
      </trkpt>
      <trkpt lat="42.09546" lon="9.15405">
        <ele>1568.719</ele>
        <time>2020-03-19T17:36:20Z</time>
      </trkpt>
      <trkpt lat="42.09513" lon="9.15389">
        <ele>1570.653</ele>
        <time>2020-03-19T17:36:40Z</time>
      </trkpt>
      <trkpt lat="42.09469" lon="9.15512">
        <ele>1541.536</ele>
        <time>2020-03-19T17:37:00Z</time>
      </trkpt>
      <trkpt lat="42.0946" lon="9.15555">
        <ele>1537.322</ele>
        <time>2020-03-19T17:37:20Z</time>
      </trkpt>
      <trkpt lat="42.09439" lon="9.15575">
        <ele>1540.258</ele>
        <time>2020-03-19T17:37:40Z</time>
      </trkpt>
      <trkpt lat="42.09411" lon="9.15642">
        <ele>1530.552</ele>
        <time>2020-03-19T17:38:00Z</time>
      </trkpt>
      <trkpt lat="42.09272" lon="9.15747">
        <ele>1512.817</ele>
        <time>2020-03-19T17:38:20Z</time>
      </trkpt>
      <trkpt lat="42.09235" lon="9.15801">
        <ele>1494.108</ele>
        <time>2020-03-19T17:38:40Z</time>
      </trkpt>
      <trkpt lat="42.09206" lon="9.15811">
        <ele>1495.229</ele>
        <time>2020-03-19T17:39:00Z</time>
      </trkpt>
      <trkpt lat="42.09153" lon="9.1582">
        <ele>1489.442</ele>
        <time>2020-03-19T17:39:20Z</time>
      </trkpt>
      <trkpt lat="42.09131" lon="9.15817">
        <ele>1486.324</ele>
        <time>2020-03-19T17:39:40Z</time>
      </trkpt>
      <trkpt lat="42.09101" lon="9.15785">
        <ele>1483.872</ele>
        <time>2020-03-19T17:40:00Z</time>
      </trkpt>
      <trkpt lat="42.09092" lon="9.15756">
        <ele>1480.326</ele>
        <time>2020-03-19T17:40:20Z</time>
      </trkpt>
      <trkpt lat="42.09077" lon="9.15711">
        <ele>1462.05</ele>
        <time>2020-03-19T17:40:40Z</time>
      </trkpt>
      <trkpt lat="42.09071" lon="9.15652">
        <ele>1467.673</ele>
        <time>2020-03-19T17:41:00Z</time>
      </trkpt>
      <trkpt lat="42.09107" lon="9.15545">
        <ele>1497.149</ele>
        <time>2020-03-19T17:41:20Z</time>
      </trkpt>
      <trkpt lat="42.09099" lon="9.15491">
        <ele>1485.195</ele>
        <time>2020-03-19T17:41:40Z</time>
      </trkpt>
      <trkpt lat="42.09098" lon="9.1541">
        <ele>1481.449</ele>
        <time>2020-03-19T17:42:00Z</time>
      </trkpt>
      <trkpt lat="42.09076" lon="9.15328">
        <ele>1467.123</ele>
        <time>2020-03-19T17:42:20Z</time>
      </trkpt>
      <trkpt lat="42.09082" lon="9.15292">
        <ele>1470.608</ele>
        <time>2020-03-19T17:42:40Z</time>
      </trkpt>
      <trkpt lat="42.09071" lon="9.15286">
        <ele>1471.233</ele>
        <time>2020-03-19T17:43:00Z</time>
      </trkpt>
      <trkpt lat="42.09058" lon="9.15311">
        <ele>1468.716</ele>
        <time>2020-03-19T17:43:20Z</time>
      </trkpt>
      <trkpt lat="42.0905" lon="9.15368">
        <ele>1458.598</ele>
        <time>2020-03-19T17:43:40Z</time>
      </trkpt>
      <trkpt lat="42.09037" lon="9.15323">
        <ele>1466.746</ele>
        <time>2020-03-19T17:44:00Z</time>
      </trkpt>
      <trkpt lat="42.09022" lon="9.15329">
        <ele>1463.65</ele>
        <time>2020-03-19T17:44:20Z</time>
      </trkpt>
      <trkpt lat="42.08986" lon="9.15364">
        <ele>1451.084</ele>
        <time>2020-03-19T17:44:40Z</time>
      </trkpt>
      <trkpt lat="42.08906" lon="9.15397">
        <ele>1457.277</ele>
        <time>2020-03-19T17:45:00Z</time>
      </trkpt>
      <trkpt lat="42.08845" lon="9.15435">
        <ele>1451.373</ele>
        <time>2020-03-19T17:45:20Z</time>
      </trkpt>
      <trkpt lat="42.08801" lon="9.15488">
        <ele>1458.893</ele>
        <time>2020-03-19T17:45:40Z</time>
      </trkpt>
      <trkpt lat="42.08762" lon="9.15507">
        <ele>1450.765</ele>
        <time>2020-03-19T17:46:00Z</time>
      </trkpt>
      <trkpt lat="42.08694" lon="9.15551">
        <ele>1447.721</ele>
        <time>2020-03-19T17:46:20Z</time>
      </trkpt>
      <trkpt lat="42.0862" lon="9.15467">
        <ele>1469.908</ele>
        <time>2020-03-19T17:46:40Z</time>
      </trkpt>
      <trkpt lat="42.0857" lon="9.15384">
        <ele>1489.893</ele>
        <time>2020-03-19T17:47:00Z</time>
      </trkpt>
      <trkpt lat="42.08542" lon="9.15435">
        <ele>1474.926</ele>
        <time>2020-03-19T17:47:20Z</time>
      </trkpt>
      <trkpt lat="42.08504" lon="9.154">
        <ele>1493.838</ele>
        <time>2020-03-19T17:47:40Z</time>
      </trkpt>
      <trkpt lat="42.08494" lon="9.15426">
        <ele>1497.436</ele>
        <time>2020-03-19T17:48:00Z</time>
      </trkpt>
      <trkpt lat="42.08437" lon="9.15403">
        <ele>1522.44</ele>
        <time>2020-03-19T17:48:20Z</time>
      </trkpt>
      <trkpt lat="42.08425" lon="9.15382">
        <ele>1523.944</ele>
        <time>2020-03-19T17:48:40Z</time>
      </trkpt>
      <trkpt lat="42.08416" lon="9.15388">
        <ele>1548.727</ele>
        <time>2020-03-19T17:49:00Z</time>
      </trkpt>
      <trkpt lat="42.08396" lon="9.15339">
        <ele>1554.043</ele>
        <time>2020-03-19T17:49:20Z</time>
      </trkpt>
      <trkpt lat="42.08375" lon="9.15328">
        <ele>1570.997</ele>
        <time>2020-03-19T17:49:40Z</time>
      </trkpt>
      <trkpt lat="42.08348" lon="9.15301">
        <ele>1579.423</ele>
        <time>2020-03-19T17:50:00Z</time>
      </trkpt>
      <trkpt lat="42.08339" lon="9.15266">
        <ele>1588.725</ele>
        <time>2020-03-19T17:50:20Z</time>
      </trkpt>
      <trkpt lat="42.08318" lon="9.15306">
        <ele>1608.808</ele>
        <time>2020-03-19T17:50:40Z</time>
      </trkpt>
      <trkpt lat="42.08305" lon="9.15313">
        <ele>1611.243</ele>
        <time>2020-03-19T17:51:00Z</time>
      </trkpt>
      <trkpt lat="42.08286" lon="9.15379">
        <ele>1602.526</ele>
        <time>2020-03-19T17:51:20Z</time>
      </trkpt>
      <trkpt lat="42.08264" lon="9.154">
        <ele>1605.948</ele>
        <time>2020-03-19T17:51:40Z</time>
      </trkpt>
      <trkpt lat="42.08239" lon="9.1547">
        <ele>1612.746</ele>
        <time>2020-03-19T17:52:00Z</time>
      </trkpt>
      <trkpt lat="42.08212" lon="9.15506">
        <ele>1604.37</ele>
        <time>2020-03-19T17:52:20Z</time>
      </trkpt>
      <trkpt lat="42.08164" lon="9.15546">
        <ele>1615.274</ele>
        <time>2020-03-19T17:52:40Z</time>
      </trkpt>
      <trkpt lat="42.08128" lon="9.1555">
        <ele>1615.027</ele>
        <time>2020-03-19T17:53:00Z</time>
      </trkpt>
      <trkpt lat="42.08097" lon="9.15524">
        <ele>1619.063</ele>
        <time>2020-03-19T17:53:20Z</time>
      </trkpt>
      <trkpt lat="42.0808" lon="9.15482">
        <ele>1625.489</ele>
        <time>2020-03-19T17:53:40Z</time>
      </trkpt>
      <trkpt lat="42.08046" lon="9.15459">
        <ele>1623.906</ele>
        <time>2020-03-19T17:54:00Z</time>
      </trkpt>
      <trkpt lat="42.08008" lon="9.15387">
        <ele>1635.726</ele>
        <time>2020-03-19T17:54:20Z</time>
      </trkpt>
      <trkpt lat="42.07986" lon="9.15392">
        <ele>1615.908</ele>
        <time>2020-03-19T17:54:40Z</time>
      </trkpt>
      <trkpt lat="42.07967" lon="9.15347">
        <ele>1617.652</ele>
        <time>2020-03-19T17:55:00Z</time>
      </trkpt>
      <trkpt lat="42.07943" lon="9.15325">
        <ele>1623.485</ele>
        <time>2020-03-19T17:55:20Z</time>
      </trkpt>
      <trkpt lat="42.07931" lon="9.15293">
        <ele>1627.287</ele>
        <time>2020-03-19T17:55:40Z</time>
      </trkpt>
      <trkpt lat="42.07909" lon="9.15273">
        <ele>1609.285</ele>
        <time>2020-03-19T17:56:00Z</time>
      </trkpt>
      <trkpt lat="42.07896" lon="9.15272">
        <ele>1606.229</ele>
        <time>2020-03-19T17:56:20Z</time>
      </trkpt>
      <trkpt lat="42.07857" lon="9.15241">
        <ele>1611.273</ele>
        <time>2020-03-19T17:56:40Z</time>
      </trkpt>
      <trkpt lat="42.07847" lon="9.15222">
        <ele>1612.936</ele>
        <time>2020-03-19T17:57:00Z</time>
      </trkpt>
      <trkpt lat="42.07852" lon="9.15212">
        <ele>1616.272</ele>
        <time>2020-03-19T17:57:20Z</time>
      </trkpt>
      <trkpt lat="42.07842" lon="9.15194">
        <ele>1617.736</ele>
        <time>2020-03-19T17:57:40Z</time>
      </trkpt>
      <trkpt lat="42.07835" lon="9.15189">
        <ele>1617.317</ele>
        <time>2020-03-19T17:58:00Z</time>
      </trkpt>
      <trkpt lat="42.07832" lon="9.15169">
        <ele>1612.018</ele>
        <time>2020-03-19T17:58:20Z</time>
      </trkpt>
      <trkpt lat="42.07822" lon="9.15152">
        <ele>1610.308</ele>
        <time>2020-03-19T17:58:40Z</time>
      </trkpt>
      <trkpt lat="42.07805" lon="9.15143">
        <ele>1606.897</ele>
        <time>2020-03-19T17:59:00Z</time>
      </trkpt>
      <trkpt lat="42.07786" lon="9.1511">
        <ele>1605.77</ele>
        <time>2020-03-19T17:59:20Z</time>
      </trkpt>
      <trkpt lat="42.07788" lon="9.15091">
        <ele>1607.722</ele>
        <time>2020-03-19T17:59:40Z</time>
      </trkpt>
      <trkpt lat="42.07778" lon="9.15074">
        <ele>1613.69</ele>
        <time>2020-03-19T18:00:00Z</time>
      </trkpt>
    </trkseg>
  </trk>
</gpx>